Tiempo atmosférico en la estación meteorológica de Santillana del Mar, Altamira, Cantabria (150 m.)



Fecha
DESCASC
Temp. máxima en grados centígrados (hora)
DESCASC
Temp. mínima en grados centígrados (hora)
DESCASC
Temp. media en grados centígrados
DESCASC
Racha de viento máxima en m/sg (hora)
DESCASC
Velocidad máxima media en intervalos de 10 minutos(hora)
DESCASC
Precipitaciones diarias en mm
DESCASC
Precipitaciones de 00:00 a 06:00 en mm
DESCASC
Precipitaciones de 06:00 a 12:00 en mm
DESCASC
Precipitaciones de 12:00 a 18:00 en mm
DESCASC
Precipitaciones de 18:00 a 24:00 en mm
DESCASC
13-10-2019 24.8 (13:30) 16.4 (01:10) 20.6 13.89 (09:10) 8.61 (09:00) 0 0 0 0 0
12-10-2019 21.7 (16:00) 14.8 (08:10) 18.3 5.56 (12:00) 3.61 (12:00) 0 0 0 0 0
11-10-2019 21.6 (15:40) 10.8 (04:40) 16.2 6.11 (16:10) 3.61 (14:00) 0 0 0 0 0
10-10-2019 20.6 (13:50) 11.6 (00:00) 16.1 5.83 (17:40) 3.33 (15:10) 0 0 0 0 0
09-10-2019 18.8 (15:30) 13.1 (00:00) 15.9 9.72 (12:20) 4.44 (16:50) 4.2 4.2 0 0 0
08-10-2019 24.9 (13:40) 12.9 (00:00) 18.9 11.67 (15:40) 6.39 (15:20) 12.4 0 0 4.4 8
07-10-2019 21.9 (13:50) 11.2 (00:00) 16.5 5.56 (15:40) 3.61 (15:40) 0 0 0 0 0
06-10-2019 18.6 (14:50) 14.7 (00:00) 16.7 5.83 (14:10) 3.06 (09:10) 2.8 0 1.4 1.4 0
05-10-2019 19.7 (13:00) 12.2 (00:00) 16 5 (14:50) 3.33 (14:10) 0 0 0 0 0
04-10-2019 17.5 (00:00) 15 (00:00) 16.3 7.22 (07:50) 3.89 (15:00) 12.5 0 7.2 4.9 0.4
03-10-2019 20.8 (12:30) 11.4 (00:00) 16.1 6.11 (15:30) 3.89 (15:30) 0.2 0 0.2 0 0
02-10-2019 18.9 (13:40) 14.7 (00:00) 16.8 12.78 (06:20) 6.11 (06:20) 1.2 0.6 0.6 0 0
01-10-2019 21.7 (12:30) 16.5 (00:00) 19.1 11.67 (05:20) 5 (15:40) 0 0 0 0 0
30-09-2019 27.2 (16:50) 14.3 (00:00) 20.8 7.22 (18:10) 3.33 (20:00) 0 0 0 0 0
29-09-2019 26.9 (15:10) 12 (00:00) 19.4 6.67 (20:00) 3.89 (08:10) 1.2 0 0 0 1.2
28-09-2019 20.2 (14:50) 13.8 (00:00) 17 5.28 (16:00) 3.33 (16:50) 1 1 0 0 0
27-09-2019 22.8 (14:00) 14.3 (00:00) 18.5 9.72 (16:00) 5.83 (16:00) 0.8 0 0 0 0.8
26-09-2019 21 (13:40) 15.8 (00:00) 18.4 6.39 (16:10) 3.89 (15:50) 0 0 0 0 0
25-09-2019 21 (15:00) 13.6 (00:00) 17.3 6.67 (15:50) 3.61 (12:50) 0 0 0 0 0
24-09-2019 20.3 (05:40) 16.5 (00:00) 18.4 9.17 (11:30) 4.44 (11:40) 1 0 1 0 0
23-09-2019 21.9 (14:30) 13 (00:00) 17.4 5 (16:50) 3.33 (10:50) 0.4 0 0 0 0.4
22-09-2019 21.4 (12:30) 15.3 (00:00) 18.3 9.17 (00:10) 5 (00:10) 0.4 0 0 0 0.4
21-09-2019 26.6 (12:30) 16.7 (00:00) 21.7 13.33 (23:30) 8.06 (14:50) 1.2 0 0 0 1.2
20-09-2019 29.3 (15:20) 13.8 (00:00) 21.5 14.44 (20:10) 10.28 (20:20) 0 0 0 0 0
19-09-2019 22.1 (12:20) 15.5 (00:00) 18.8 5.56 (15:10) 3.61 (14:00) 0 0 0 0 0
18-09-2019 21.8 (13:00) 17.8 (00:00) 19.8 6.39 (14:10) 4.44 (13:40) 0.2 0.2 0 0 0
17-09-2019 23.9 (16:20) 17.3 (00:00) 20.6 5.56 (16:40) 3.89 (14:00) 0 0 0 0 0

Gráficas

Temp. máximas Temp. mínimas Temp. medias Precipitaciones Rachas de viento máximas Velocidades máximas media en intervalos de 10 minutos

Datos horarios

Fecha y hora oficial Temperatura (ºC) Velocidad del viento (km/h) Dirección del viento Racha (km/h) Dirección de racha Precipitación (mm) Presión (hPa) Tendencia (hPa) Humedad (%)
2019-10-16 23:00:00 16.6 17 Sur 28 Sur 0.2 -- -- 79
2019-10-16 22:00:00 16.6 11 Sur 19 Sur 0 -- -- 79
2019-10-16 21:00:00 15.9 12 Sur 19 Sur 0.4 -- -- 83
2019-10-16 20:00:00 16.5 9 Sur 13 Sur 0.8 -- -- 87
2019-10-16 19:00:00 18.4 7 Sur 20 Sur 0 -- -- 71
2019-10-16 18:00:00 20.4 11 Sur 28 Sur 0 -- -- 58
2019-10-16 17:00:00 21.8 14 Sur 26 Sur 0 -- -- 55
2019-10-16 16:00:00 20.2 14 Sur 27 Sur 0 -- -- 57
2019-10-16 15:00:00 21.5 11 Sur 27 Sur 0 -- -- 56
2019-10-16 14:00:00 22.3 17 Sur 27 Sur 0 -- -- 57
2019-10-16 13:00:00 19.2 8 Sudeste 25 Sur 0 -- -- 66
2019-10-16 12:00:00 16.4 14 Sur 28 Sur 0.2 -- -- 78
2019-10-16 11:00:00 14.9 10 Sur 22 Sur 0.4 -- -- 87
2019-10-16 10:00:00 15.3 8 Sur 15 Sur 0.2 -- -- 82
2019-10-16 09:00:00 15.7 9 Sur 18 Sur 0 -- -- 74
2019-10-16 08:00:00 16.4 13 Sur 24 Sur 0 -- -- 64
2019-10-16 07:00:00 16.1 15 Sur 28 Sur 0 -- -- 64
2019-10-16 06:00:00 15.9 13 Sur 21 Sudeste 0 -- -- 66
2019-10-16 05:00:00 15.7 13 Sur 19 Sur 0 -- -- 66
2019-10-16 04:00:00 15 12 Sur 19 Sur 0 -- -- 68
2019-10-16 03:00:00 14.2 9 Sur 13 Sur 0 -- -- 69
2019-10-16 02:00:00 14.1 9 Sur 12 Sur 0 -- -- 69
2019-10-16 01:00:00 14 6 Sur 12 Sudeste 0 -- -- 72
2019-10-16 00:00:00 14.2 3 Sur 12 Sudoeste 0 -- -- 70
2019-10-15 23:00:00 15.1 4 Sur 16 Sudoeste 0 -- -- 67
2019-10-15 22:00:00 15.1 5 Sudoeste 15 Sur 0 -- -- 62
2019-10-15 21:00:00 14.8 8 Sur 14 Sur 0 -- -- 71
2019-10-15 20:00:00 14.7 8 Sur 14 Sudoeste 0 -- -- 75
2019-10-15 19:00:00 16.6 3 Sudoeste 11 Noroeste 0 -- -- 62
2019-10-15 18:00:00 19.3 0 Calma 19 Sudeste 0 -- -- 51
2019-10-15 17:00:00 19.4 10 Sudeste 19 Sudeste 0 -- -- 47
2019-10-15 16:00:00 19.2 10 Sudeste 20 Sur 0 -- -- 48
2019-10-15 15:00:00 20.3 7 Sur 21 Sur 0 -- -- 40
2019-10-15 14:00:00 20 8 Sur 18 Sur 0 -- -- 45
2019-10-15 13:00:00 18.9 6 Sur 15 Sur 0 -- -- 47
2019-10-15 12:00:00 16.8 8 Sur 13 Sudoeste 0 -- -- 61
2019-10-15 11:00:00 13 8 Sudoeste 15 Sudoeste 0 -- -- 74
2019-10-15 10:00:00 11.1 9 Sudoeste 18 Oeste 0 -- -- 74
2019-10-15 09:00:00 10.2 8 Sudoeste 17 Sudoeste 0 -- -- 74
2019-10-15 08:00:00 10 12 Sudoeste 17 Sudoeste 0 -- -- 78
2019-10-15 07:00:00 9.6 10 Sur 18 Sur 0 -- -- 80
2019-10-15 06:00:00 9.6 8 Sudoeste 17 Sudoeste 0 -- -- 82
2019-10-15 05:00:00 8.6 10 Sur 15 Sudoeste 0 -- -- 89
2019-10-15 04:00:00 9.3 9 Sur 15 Sudoeste 0 -- -- 86
2019-10-15 03:00:00 10 7 Sur 18 Oeste 0 -- -- 79
2019-10-15 02:00:00 12.5 7 Oeste 26 Oeste 0 -- -- 65
2019-10-15 01:00:00 12 7 Sudoeste 32 Oeste 0 -- -- 67
2019-10-15 00:00:00 12.4 10 Oeste 27 Oeste 0 -- -- 70
2019-10-14 23:00:00 12 9 Oeste 25 Oeste 0 -- -- 72
2019-10-14 22:00:00 12.3 10 Oeste 29 Oeste 0 -- -- 81
2019-10-14 21:00:00 12.1 7 Sudoeste 20 Noroeste 0.4 -- -- 85
2019-10-14 20:00:00 11.7 6 Oeste 25 Oeste 2.8 -- -- 94
2019-10-14 19:00:00 11.9 18 Noroeste 39 Noroeste 2.4 -- -- 93
2019-10-14 18:00:00 14.6 8 Noroeste 26 Norte 0.2 -- -- 86
2019-10-14 17:00:00 16.1 18 Noroeste 25 Noroeste 0 -- -- 83
2019-10-14 16:00:00 18.3 5 Norte 22 Norte 0.2 -- -- 71
2019-10-14 15:00:00 19.2 10 Norte 16 Norte 0 -- -- 77
2019-10-14 14:00:00 17.7 5 Norte 11 Sudeste 0 -- -- 77
2019-10-14 13:00:00 16 5 Sur 19 Sudoeste 0 -- -- 85
2019-10-14 12:00:00 14.6 5 Oeste 16 Noroeste 0.2 -- -- 90
2019-10-14 11:00:00 14.6 2 Sudoeste 11 Sudoeste 0 -- -- 92
2019-10-14 10:00:00 13.9 6 Sudoeste 15 Sudoeste 0.6 -- -- 91
2019-10-14 09:00:00 13.7 9 Sudoeste 14 Sudoeste 0 -- -- 97
2019-10-14 08:00:00 13.8 5 Sudoeste 16 Oeste 0.2 -- -- 98
2019-10-14 07:00:00 14.4 9 Oeste 38 Noroeste 0.6 -- -- 97
2019-10-14 06:00:00 14.9 14 Noroeste 39 Oeste 0 -- -- 98
2019-10-14 05:00:00 16.7 17 Noroeste 41 Oeste 0 -- -- 96
2019-10-14 04:00:00 16.4 5 Noroeste 16 Sudoeste 0 -- -- 79
2019-10-14 03:00:00 15.7 4 Sur 18 Sudoeste 0 -- -- 95
2019-10-14 02:00:00 15.6 4 Noroeste 14 Sudoeste 0 -- -- 97
2019-10-14 01:00:00 15.9 8 Sudoeste 12 Sudoeste -- -- -- 97
2019-10-14 00:00:00 16.9 3 Sudoeste 5 Sudoeste 0 -- -- 96
2019-10-13 23:00:00 17.3 0 Calma 8 Norte 0 -- -- 96
2019-10-13 22:00:00 17.4 3 Norte 8 Nordeste 0 -- -- 95
2019-10-13 21:00:00 17.6 4 Nordeste 13 Nordeste 0 -- -- 94
2019-10-13 20:00:00 17.8 5 Nordeste 10 Este 0 -- -- 92
2019-10-13 19:00:00 18.3 4 Nordeste 15 Norte 0 -- -- 89
2019-10-13 18:00:00 19.1 10 Norte 18 Noroeste 0 -- -- 84
2019-10-13 17:00:00 19.8 12 Norte 22 Noroeste 0 -- -- 83
2019-10-13 16:00:00 20.2 12 Noroeste 33 Oeste 0 -- -- 85
2019-10-13 15:00:00 21.2 19 Noroeste 39 Noroeste 0 -- -- 79
2019-10-13 14:00:00 24.2 10 Noroeste 18 Sur 0 -- -- 50
2019-10-13 13:00:00 22.9 14 Sur 40 Sur 0 -- -- 52
2019-10-13 12:00:00 21.2 20 Sur 33 Sur 0 -- -- 47
2019-10-13 11:00:00 21.9 9 Sur 18 Sur 0 -- -- 46
2019-10-13 10:00:00 21.7 4 Nordeste 50 Sur 0 -- -- 46
2019-10-13 09:00:00 22.6 31 Sur 49 Sur 0 -- -- 42
2019-10-13 08:00:00 22.8 13 Sur 37 Sur 0 -- -- 46
2019-10-13 07:00:00 22.7 23 Sur 35 Sudoeste 0 -- -- 47
2019-10-13 06:00:00 22.2 23 Sur 34 Sur 0 -- -- 51
2019-10-13 05:00:00 21.4 16 Sur 49 Sudoeste 0 -- -- 54
2019-10-13 04:00:00 18.3 4 Nordeste 17 Sudoeste 0 -- -- 88
2019-10-13 03:00:00 21.1 7 Sur 34 Sur 0 -- -- 58
2019-10-13 02:00:00 20.4 18 Sur 29 Sur 0 -- -- 65
2019-10-13 01:00:00 16.5 11 Sur 17 Sur 0 -- -- 100
2019-10-13 00:00:00 17.6 5 Sudeste 9 Sudeste 0 -- -- 100
2019-10-12 23:00:00 17.6 3 Sudeste 5 Este 0 -- -- 99
2019-10-12 22:00:00 17.8 2 Sudoeste 10 Sudoeste 0 -- -- 99
2019-10-12 21:00:00 17.9 2 Noroeste 11 Noroeste 0 -- -- 98
2019-10-12 20:00:00 18.1 5 Noroeste 12 Norte 0 -- -- 97
2019-10-12 19:00:00 18.4 6 Norte 16 Nordeste 0 -- -- 96
2019-10-12 18:00:00 18.9 8 Nordeste 15 Norte 0 -- -- 92
2019-10-12 17:00:00 20.3 9 Norte 15 Norte 0 -- -- 85
2019-10-12 16:00:00 21.7 8 Norte 15 Norte 0 -- -- 82
2019-10-12 15:00:00 20.4 5 Norte 16 Norte 0 -- -- 86
2019-10-12 14:00:00 18.3 7 Norte 17 Norte 0 -- -- 94
2019-10-12 13:00:00 17.5 8 Noroeste 20 Norte 0 -- -- 97
2019-10-12 12:00:00 17.1 13 Norte 20 Noroeste 0 -- -- 99
2019-10-12 11:00:00 15.9 5 Sudoeste 9 Sudoeste 0 -- -- 99
2019-10-12 10:00:00 16.2 4 Noroeste 15 Noroeste 0 -- -- 100
2019-10-12 09:00:00 15 5 Norte 12 Sudoeste -- -- -- 100
2019-10-12 08:00:00 14.9 5 Sur 8 Sudoeste 0 -- -- 99
2019-10-12 07:00:00 15 0 Calma 5 Sudoeste 0 -- -- 99
2019-10-12 06:00:00 15.1 0 Calma 7 Sudoeste 0 -- -- 99
2019-10-12 05:00:00 15.5 4 Sur 7 Sur 0 -- -- 99
2019-10-12 04:00:00 15.5 2 Sudoeste 6 Noroeste 0 -- -- 99
2019-10-12 03:00:00 15.2 3 Sudoeste 6 Sudoeste 0 -- -- 98
2019-10-12 02:00:00 15.4 0 Calma 9 Noroeste 0 -- -- 98
2019-10-12 01:00:00 15.8 3 Sudoeste 8 Oeste 0 -- -- 97
2019-10-12 00:00:00 15.8 0 Calma 15 Sur 0 -- -- 98
2019-10-11 23:00:00 16.2 3 Sudoeste 11 Oeste 0 -- -- 97
2019-10-11 22:00:00 16.2 4 Oeste 14 Noroeste 0 -- -- 98
2019-10-11 21:00:00 16.3 5 Noroeste 15 Oeste 0 -- -- 96
2019-10-11 20:00:00 16.6 6 Noroeste 17 Noroeste 0 -- -- 94
2019-10-11 19:00:00 17.6 8 Norte 14 Norte 0 -- -- 90
2019-10-11 18:00:00 19.3 9 Norte 19 Noroeste 0 -- -- 83
2019-10-11 17:00:00 19.9 13 Norte 22 Norte 0 -- -- 81
2019-10-11 16:00:00 21.4 8 Norte 18 Noroeste 0 -- -- 68
2019-10-11 15:00:00 20.9 11 Norte 20 Norte 0 -- -- 73
2019-10-11 14:00:00 20.9 13 Norte 20 Noroeste 0 -- -- 72
2019-10-11 13:00:00 20.4 10 Norte 17 Norte 0 -- -- 76
2019-10-11 12:00:00 20.4 7 Norte 13 Noroeste 0 -- -- 72
2019-10-11 11:00:00 20.3 2 Sur 15 Sudoeste 0 -- -- 67
2019-10-11 10:00:00 16.9 9 Sudoeste 18 Sudoeste 0 -- -- 74
2019-10-11 09:00:00 13.4 11 Sur 16 Sudoeste 0 -- -- 82
2019-10-11 08:00:00 12 12 Sur 18 Sudoeste 0 -- -- 91
2019-10-11 07:00:00 12.2 4 Sudoeste 14 Sudoeste 0 -- -- 94
2019-10-11 06:00:00 11.8 7 Sudoeste 12 Sudoeste 0 -- -- 95
2019-10-11 05:00:00 11.2 4 Sudoeste 13 Sudoeste 0 -- -- 97
2019-10-11 04:00:00 11.8 6 Sur 17 Sur 0 -- -- 94
2019-10-11 03:00:00 12.4 10 Sudoeste 17 Sudoeste 0 -- -- 96
2019-10-11 02:00:00 12.5 10 Sur 17 Sudoeste 0 -- -- 97
2019-10-11 01:00:00 12.4 7 Sur 10 Sur 0 -- -- 96
2019-10-11 00:00:00 13.2 4 Sudoeste 9 Sudoeste 0 -- -- 96
2019-10-10 23:00:00 13.7 4 Sur 6 Sur 0 -- -- 93
2019-10-10 22:00:00 14.3 4 Sudeste 9 Este 0 -- -- 92
2019-10-10 21:00:00 14.6 4 Este 12 Este 0 -- -- 90
2019-10-10 20:00:00 15.4 3 Nordeste 14 Norte 0 -- -- 87
2019-10-10 19:00:00 16.7 7 Norte 16 Nordeste -- -- -- 81
2019-10-10 18:00:00 18.1 9 Nordeste 21 Norte 0 -- -- 75
2019-10-10 17:00:00 19.1 8 Nordeste 20 Nordeste 0 -- -- 72
2019-10-10 16:00:00 19.2 9 Nordeste 20 Norte 0 -- -- 71
2019-10-10 15:00:00 19.4 11 Norte 20 Nordeste 0 -- -- 69
2019-10-10 14:00:00 20.5 5 Nordeste 12 Este 0 -- -- 57
2019-10-10 13:00:00 19.9 5 Sudeste 13 Sudeste 0 -- -- 62
2019-10-10 12:00:00 17.7 5 Sur 9 Sur 0 -- -- 72
2019-10-10 11:00:00 15.4 7 Sur 15 Sur 0 -- -- 80
2019-10-10 10:00:00 12.9 11 Sur 17 Sur 0 -- -- 86
2019-10-10 09:00:00 12 8 Sudoeste 17 Sudoeste 0 -- -- 85
2019-10-10 08:00:00 11.7 9 Sudoeste 17 Oeste 0 -- -- 87
2019-10-10 07:00:00 11.8 8 Sudoeste 15 Sudoeste 0 -- -- 89
2019-10-10 06:00:00 11.7 7 Sudoeste 14 Oeste 0 -- -- 91
2019-10-10 05:00:00 11.9 9 Sudoeste 15 Sudoeste 0 -- -- 92
2019-10-10 04:00:00 12.6 8 Sudoeste 17 Sudoeste 0 -- -- 90
2019-10-10 03:00:00 13 7 Sudoeste 15 Sudoeste 0 -- -- 89
2019-10-10 02:00:00 13 8 Sudoeste 13 Sudoeste 0 -- -- 91
2019-10-10 01:00:00 13.2 8 Sudoeste 11 Sudoeste 0 -- -- 91
2019-10-10 00:00:00 13.9 4 Sudoeste 13 Sudoeste 0 -- -- 89
2019-10-09 23:00:00 13.8 7 Sudoeste 14 Sudoeste 0 -- -- 89
2019-10-09 22:00:00 14.8 3 Sudoeste 8 Sudoeste 0 -- -- 85
2019-10-09 21:00:00 14.9 4 Sudoeste 9 Oeste -- -- -- 82
2019-10-09 20:00:00 15.4 5 Oeste 15 Oeste 0 -- -- 80
2019-10-09 19:00:00 16.3 5 Oeste 17 Noroeste 0 -- -- 75
2019-10-09 18:00:00 16.6 8 Noroeste 25 Noroeste 0 -- -- 79
2019-10-09 17:00:00 17.7 12 Noroeste 32 Noroeste 0 -- -- 75
2019-10-09 16:00:00 18.3 13 Noroeste 28 Norte 0 -- -- 64
2019-10-09 15:00:00 18.6 11 Noroeste 30 Norte 0 -- -- 65
2019-10-09 14:00:00 18.1 14 Noroeste 30 Noroeste 0 -- -- 69
2019-10-09 13:00:00 18.2 8 Noroeste 35 Noroeste 0 -- -- 72
2019-10-09 12:00:00 17.8 8 Noroeste 26 Noroeste 0 -- -- 75
2019-10-09 11:00:00 17.3 4 Oeste 19 Oeste 0 -- -- 73
2019-10-09 10:00:00 15.6 5 Oeste 19 Oeste 0 -- -- 76
2019-10-09 09:00:00 13.8 5 Sudoeste 22 Oeste 0 -- -- 83
2019-10-09 08:00:00 13.1 5 Oeste 13 Oeste 0 -- -- 95
2019-10-09 07:00:00 13.3 6 Sudoeste 14 Sudoeste 0 -- -- 100
2019-10-09 06:00:00 13.5 9 Sudoeste 16 Oeste 0.4 -- -- 100
2019-10-09 05:00:00 13.5 6 Oeste 18 Sudoeste 2 -- -- 100
2019-10-09 04:00:00 13.6 7 Sudoeste 10 Sudoeste 0.4 -- -- 100
2019-10-09 03:00:00 13.4 2 Oeste 11 Sudoeste 0 -- -- 100
2019-10-09 02:00:00 13.5 6 Sur 11 Noroeste 0.2 -- -- 100
2019-10-09 01:00:00 13.8 6 Noroeste 17 Oeste 1.2 -- -- 100
2019-10-09 00:00:00 13.8 7 Sudoeste 18 Sudoeste 0 -- -- 100
2019-10-08 23:00:00 13.8 6 Sur 27 Noroeste 0.6 -- -- 100
2019-10-08 22:00:00 14.3 10 Noroeste 22 Noroeste 1 -- -- 100
2019-10-08 21:00:00 14.5 10 Noroeste 22 Noroeste 1.6 -- -- 100
2019-10-08 20:00:00 14.8 9 Noroeste 29 Noroeste 1.4 -- -- 100
2019-10-08 19:00:00 15.2 16 Noroeste 32 Noroeste 3.4 -- -- 100
2019-10-08 18:00:00 16.1 13 Noroeste 41 Noroeste 3.2 -- -- 99
2019-10-08 17:00:00 17.6 21 Norte 36 Noroeste 1.2 -- -- 97
2019-10-08 16:00:00 19.6 13 Noroeste 42 Noroeste 0 -- -- 91
2019-10-08 15:00:00 24.1 9 Noroeste 24 Oeste 0 -- -- 65
2019-10-08 14:00:00 24.6 8 Noroeste 16 Noroeste 0 -- -- 66
2019-10-08 13:00:00 24.4 7 Sur 15 Sur 0 -- -- 69
2019-10-08 12:00:00 22.6 4 Sudeste 15 Sur 0 -- -- 71
2019-10-08 11:00:00 20.2 8 Sur 15 Sur 0 -- -- 76
2019-10-08 10:00:00 17.3 9 Sur 17 Sudoeste 0 -- -- 85
2019-10-08 09:00:00 16.7 9 Sudoeste 18 Sudoeste 0 -- -- 81
2019-10-08 08:00:00 15.7 10 Sudoeste 19 Sudoeste 0 -- -- 82
2019-10-08 07:00:00 15.7 10 Sudoeste 18 Sudoeste 0 -- -- 83
2019-10-08 06:00:00 14.8 11 Sudoeste 17 Sudoeste 0 -- -- 86
2019-10-08 05:00:00 12.9 10 Sur 13 Sudoeste 0 -- -- 94
2019-10-08 04:00:00 13.5 10 Sur 13 Sur 0 -- -- 94
2019-10-08 03:00:00 13.5 7 Sur 14 Sur 0 -- -- 93
2019-10-08 02:00:00 13.9 8 Sur 13 Sur 0 -- -- 92
2019-10-08 01:00:00 14.8 11 Sudoeste 17 Sudoeste 0 -- -- 91
2019-10-08 00:00:00 14.2 7 Sur 10 Sudoeste 0 -- -- 92
2019-10-07 23:00:00 15.5 4 Sudoeste 9 Sur 0 -- -- 91
2019-10-07 22:00:00 16 4 Sudoeste 11 Sudoeste 0 -- -- 91
2019-10-07 21:00:00 16.1 5 Sur 6 Sur 0 -- -- 86
2019-10-07 20:00:00 16.9 0 Calma 6 Norte 0 -- -- 84
2019-10-07 19:00:00 18.7 4 Noroeste 8 Oeste 0 -- -- 78
2019-10-07 18:00:00 20.2 6 Norte 14 Norte 0 -- -- 75
2019-10-07 17:00:00 21.4 7 Norte 15 Norte 0 -- -- 73
2019-10-07 16:00:00 21.2 10 Norte 20 Noroeste 0 -- -- 71
2019-10-07 15:00:00 21.7 9 Noroeste 14 Norte 0 -- -- 68
2019-10-07 14:00:00 21.7 8 Norte 13 Norte 0 -- -- 66
2019-10-07 13:00:00 21.1 3 Nordeste 8 Sur 0 -- -- 75
2019-10-07 12:00:00 19.1 6 Sur 12 Sur 0 -- -- 77
2019-10-07 11:00:00 16.8 10 Sur 16 Sur 0 -- -- 88
2019-10-07 10:00:00 14 9 Sur 16 Sudoeste 0 -- -- 97
2019-10-07 09:00:00 12.1 9 Sur 13 Sur 0 -- -- 100
2019-10-07 08:00:00 11.4 8 Sur 12 Sudoeste 0 -- -- 99
2019-10-07 07:00:00 12.4 7 Sur 12 Sudoeste 0 -- -- 99
2019-10-07 06:00:00 11.6 8 Sur 11 Sudoeste 0 -- -- 100
2019-10-07 05:00:00 12 5 Sur 8 Sur 0 -- -- 100
2019-10-07 04:00:00 12.8 4 Sur 5 Sur 0 -- -- 100
2019-10-07 03:00:00 13.1 3 Sur 8 Sudoeste 0 -- -- 99
2019-10-07 02:00:00 13.4 5 Sudoeste 6 Sudoeste 0 -- -- 99
2019-10-07 01:00:00 14.1 4 Sudoeste 8 Sudoeste 0 -- -- 98
2019-10-07 00:00:00 14.8 5 Sudoeste 9 Sudoeste 0 -- -- 96
2019-10-06 23:00:00 14.9 5 Sudoeste 8 Oeste 0 -- -- 93
2019-10-06 22:00:00 15.3 5 Sudoeste 9 Oeste 0 -- -- 94
2019-10-06 21:00:00 15.3 3 Noroeste 6 Noroeste 0 -- -- 91
2019-10-06 20:00:00 15.4 5 Noroeste 7 Norte 0 -- -- 95
2019-10-06 19:00:00 16.1 5 Norte 14 Norte 0 -- -- 93
2019-10-06 18:00:00 16.4 7 Norte 17 Norte 0 -- -- 94
2019-10-06 17:00:00 16.4 5 Noroeste 17 Norte 0.2 -- -- 96
2019-10-06 16:00:00 16.6 8 Noroeste 20 Noroeste 1 -- -- 96
2019-10-06 15:00:00 18.3 8 Noroeste 21 Oeste 0 -- -- 88
2019-10-06 14:00:00 17.7 9 Noroeste 18 Oeste 0 -- -- 94
2019-10-06 13:00:00 16.6 4 Norte 13 Sudoeste 0.2 -- -- 97
2019-10-06 12:00:00 16.6 4 Oeste 17 Sudoeste 0.2 -- -- 98
2019-10-06 11:00:00 16.1 6 Sudoeste 19 Oeste 0.8 -- -- 99
2019-10-06 10:00:00 15.3 7 Sudoeste 16 Sudoeste 0 -- -- 99
2019-10-06 09:00:00 15.2 10 Sudoeste 14 Sudoeste 0.4 -- -- 97
2019-10-06 08:00:00 15.8 7 Noroeste 16 Noroeste 0 -- -- 92
2019-10-06 07:00:00 15.3 7 Sudoeste 14 Sudoeste 0 -- -- 91
2019-10-06 06:00:00 15.3 7 Sudoeste 13 Sudoeste 0 -- -- 93
2019-10-06 05:00:00 15.3 6 Sudoeste 12 Oeste 0 -- -- 94
2019-10-06 04:00:00 15 6 Sudoeste 9 Sudoeste 0 -- -- 95
2019-10-06 03:00:00 14.8 6 Sudoeste 13 Sur 0 -- -- 96
2019-10-06 02:00:00 15.5 3 Sudoeste 9 Oeste 0 -- -- 92
2019-10-06 01:00:00 15 4 Sudoeste 12 Sudoeste 0 -- -- 95
2019-10-06 00:00:00 14.8 9 Sudoeste 15 Sur 0 -- -- 94
2019-10-05 23:00:00 15.1 4 Sudoeste 9 Sudoeste 0 -- -- 93
2019-10-05 22:00:00 15.3 8 Sur 14 Sudoeste 0 -- -- 95
2019-10-05 21:00:00 16.4 9 Sudoeste 14 Sudoeste 0 -- -- 89
2019-10-05 20:00:00 16.6 0 Calma 4 Noroeste 0 -- -- 88
2019-10-05 19:00:00 17 3 Norte 6 Norte 0 -- -- 89
2019-10-05 18:00:00 17.5 5 Norte 15 Noroeste 0 -- -- 85
2019-10-05 17:00:00 18.2 8 Norte 14 Norte 0 -- -- 83
2019-10-05 16:00:00 18.2 7 Norte 15 Norte 0 -- -- 84
2019-10-05 15:00:00 18.9 12 Norte 18 Norte 0 -- -- 79
2019-10-05 14:00:00 18.6 9 Norte 17 Norte 0 -- -- 79
2019-10-05 13:00:00 19.7 8 Norte 15 Noroeste 0 -- -- 78
2019-10-05 12:00:00 18.4 2 Nordeste 10 Este 0 -- -- 80
2019-10-05 11:00:00 17.6 5 Sur 10 Sur 0 -- -- 86
2019-10-05 10:00:00 15.3 5 Sur 9 Sur 0 -- -- 100
2019-10-05 09:00:00 13.5 6 Sudoeste 10 Sudoeste 0 -- -- 100
2019-10-05 08:00:00 13.1 2 Sudoeste 6 Sudoeste 0 -- -- 100
2019-10-05 07:00:00 12.8 4 Sur 6 Sur 0 -- -- 100
2019-10-05 06:00:00 13.3 5 Sur 7 Sur 0 -- -- 99
2019-10-05 05:00:00 13.7 4 Sudoeste 11 Sudoeste 0 -- -- 98
2019-10-05 04:00:00 14.4 5 Sudoeste 10 Sudoeste 0 -- -- 97
2019-10-05 03:00:00 14.6 6 Sudoeste 12 Sudoeste 0 -- -- 97
2019-10-05 02:00:00 14.9 8 Sudoeste 12 Sudoeste 0 -- -- 97
2019-10-05 01:00:00 14.9 7 Sudoeste 15 Sudoeste 0 -- -- 97
2019-10-05 00:00:00 15 7 Sudoeste 15 Oeste 0 -- -- 97
2019-10-04 23:00:00 15.2 8 Sudoeste 14 Sudoeste 0 -- -- 96
2019-10-04 22:00:00 15.4 5 Sudoeste 9 Sudoeste 0 -- -- 96
2019-10-04 21:00:00 15.4 6 Sudoeste 10 Sudoeste 0 -- -- 98
2019-10-04 20:00:00 15.5 3 Sudoeste 13 Oeste 0 -- -- 98
2019-10-04 19:00:00 15.3 4 Oeste 16 Noroeste 0.4 -- -- 98
2019-10-04 18:00:00 16.1 5 Oeste 18 Noroeste 0.2 -- -- 99
2019-10-04 17:00:00 15.7 7 Norte 18 Norte 1.6 -- -- 100
2019-10-04 16:00:00 16.1 6 Noroeste 19 Noroeste 0.6 -- -- 100
2019-10-04 15:00:00 15.8 14 Norte 25 Noroeste 0.8 -- -- 99
2019-10-04 14:00:00 16.7 9 Noroeste 19 Noroeste -- -- -- 100
2019-10-04 13:00:00 16.7 6 Noroeste 17 Noroeste 0.4 -- -- 100
2019-10-04 12:00:00 16.6 7 Noroeste 16 Noroeste 0.4 -- -- 100
2019-10-04 11:00:00 16.1 6 Noroeste 20 Norte 1.6 -- -- 100
2019-10-04 10:00:00 15.6 6 Sudoeste 10 Sudoeste 1 -- -- 100
2019-10-04 09:00:00 15.7 3 Sudoeste 18 Oeste 1 -- -- 99
2019-10-04 08:00:00 16.2 7 Oeste 26 Noroeste 1.8 -- -- 99
2019-10-04 07:00:00 16.4 8 Oeste 21 Sudoeste 1.4 -- -- 98
2019-10-04 06:00:00 15.5 5 Sudoeste 10 Sudoeste 0 -- -- 90
2019-10-04 05:00:00 16.3 7 Sudoeste 15 Sudoeste 0 -- -- 85
2019-10-04 04:00:00 15.6 6 Sudoeste 15 Sudoeste 0 -- -- 89
2019-10-04 03:00:00 15.7 7 Sudoeste 12 Sudoeste 0 -- -- 85
2019-10-04 02:00:00 17.1 6 Sudoeste 17 Sudoeste 0 -- -- 78
2019-10-04 01:00:00 17.5 7 Sudoeste 14 Sudoeste 0 -- -- 78
2019-10-04 00:00:00 17.5 8 Sudoeste 14 Sudoeste 0 -- -- 80
2019-10-03 23:00:00 17.5 7 Sudoeste 14 Sudoeste 0 -- -- 80
2019-10-03 22:00:00 17.9 7 Sudoeste 11 Sudoeste 0 -- -- 79
2019-10-03 21:00:00 17.3 3 Sur 8 Sudoeste 0 -- -- 76
2019-10-03 20:00:00 17.5 7 Sudoeste 9 Sudoeste 0 -- -- 74
2019-10-03 19:00:00 19.3 2 Sudoeste 13 Norte 0 -- -- 65
2019-10-03 18:00:00 20.5 8 Noroeste 19 Noroeste 0 -- -- 60
2019-10-03 17:00:00 20.6 10 Noroeste 20 Norte 0 -- -- 61
2019-10-03 16:00:00 20.8 9 Norte 22 Norte 0 -- -- 62
2019-10-03 15:00:00 20.8 9 Noroeste 20 Noroeste 0 -- -- 59
2019-10-03 14:00:00 20.7 6 Noroeste 17 Norte 0 -- -- 66
2019-10-03 13:00:00 20 11 Noroeste 19 Noroeste 0 -- -- 69
2019-10-03 12:00:00 19.5 4 Sudeste 15 Sur 0 -- -- 71
2019-10-03 11:00:00 16.7 10 Sur 16 Sudoeste 0 -- -- 80
2019-10-03 10:00:00 14.2 9 Sudoeste 17 Oeste 0 -- -- 89
2019-10-03 09:00:00 12.7 9 Sudoeste 17 Sudoeste 0.2 -- -- 96
2019-10-03 08:00:00 11.7 8 Sur 11 Sudoeste 0 -- -- 97
2019-10-03 07:00:00 12.8 6 Sudoeste 9 Sudoeste 0 -- -- 99
2019-10-03 06:00:00 12.4 4 Sur 7 Sur 0 -- -- 98
2019-10-03 05:00:00 13 0 Calma 7 Sudeste 0 -- -- 98
2019-10-03 04:00:00 13.4 3 Sur 8 Sur 0 -- -- 98
2019-10-03 03:00:00 13.6 4 Sudeste 5 Sudeste 0 -- -- 97
2019-10-03 02:00:00 13.8 4 Sur 6 Sudoeste 0 -- -- 96
2019-10-03 01:00:00 14.5 4 Sur 6 Sudoeste 0 -- -- 94
2019-10-03 00:00:00 15.1 5 Sudoeste 9 Sudoeste 0 -- -- 95
2019-10-02 23:00:00 15.2 5 Sudoeste 6 Sudoeste 0 -- -- 93
2019-10-02 22:00:00 15.1 3 Sudoeste 5 Sudoeste 0 -- -- 94
2019-10-02 21:00:00 15 3 Sudoeste 5 Sur 0 -- -- 93
2019-10-02 20:00:00 15.9 2 Nordeste 14 Norte 0 -- -- 88
2019-10-02 19:00:00 16.4 9 Norte 22 Norte 0 -- -- 89
2019-10-02 18:00:00 17.3 6 Noroeste 15 Noroeste 0 -- -- 82
2019-10-02 17:00:00 17.7 8 Noroeste 26 Noroeste 0 -- -- 80
2019-10-02 16:00:00 18.4 12 Noroeste 30 Noroeste 0 -- -- 77
2019-10-02 15:00:00 18.3 13 Noroeste 34 Noroeste 0 -- -- 74
2019-10-02 14:00:00 18.6 14 Noroeste 37 Noroeste 0 -- -- 74
2019-10-02 13:00:00 18.2 12 Noroeste 28 Oeste 0 -- -- 73
2019-10-02 12:00:00 17.4 12 Noroeste 27 Noroeste 0 -- -- 77
2019-10-02 11:00:00 16.5 9 Oeste 28 Noroeste 0 -- -- 80
2019-10-02 10:00:00 15.4 6 Oeste 31 Noroeste 0.2 -- -- 85
2019-10-02 09:00:00 15 9 Noroeste 29 Oeste 0.2 -- -- 88
2019-10-02 08:00:00 14.8 8 Oeste 30 Noroeste 0.2 -- -- 88
2019-10-02 07:00:00 15.7 14 Oeste 46 Noroeste 0 -- -- 83
2019-10-02 06:00:00 17.2 13 Noroeste 35 Noroeste 0 -- -- 69
2019-10-02 05:00:00 16.9 14 Noroeste 33 Noroeste 0 -- -- 77
2019-10-02 04:00:00 16.7 10 Noroeste 30 Noroeste 0 -- -- 75
2019-10-02 03:00:00 16.4 5 Oeste 16 Oeste 0 -- -- 82
2019-10-02 02:00:00 16.4 5 Sudoeste 27 Oeste 0 -- -- 81
2019-10-02 01:00:00 16.2 7 Oeste 32 Oeste 0.6 -- -- 87
2019-10-02 00:00:00 17.3 7 Oeste 39 Oeste 0 -- -- 80
2019-10-01 23:00:00 17.6 16 Noroeste 35 Noroeste 0 -- -- 80
2019-10-01 22:00:00 17.7 8 Noroeste 39 Noroeste 0 -- -- 85
2019-10-01 21:00:00 17.8 13 Noroeste 36 Noroeste 0 -- -- 84
2019-10-01 20:00:00 18.1 12 Noroeste 28 Noroeste 0 -- -- 84
2019-10-01 19:00:00 18.3 11 Noroeste 27 Oeste 0 -- -- 81
2019-10-01 18:00:00 18.9 9 Noroeste 27 Oeste 0 -- -- 81
2019-10-01 17:00:00 19.3 9 Noroeste 26 Noroeste 0 -- -- 81
2019-10-01 16:00:00 19.6 18 Noroeste 32 Noroeste 0 -- -- 81
2019-10-01 15:00:00 19.9 15 Noroeste 25 Noroeste 0 -- -- 81
2019-10-01 14:00:00 20.6 14 Noroeste 29 Noroeste 0 -- -- 78
2019-10-01 13:00:00 21.1 9 Noroeste 25 Noroeste 0 -- -- 77
2019-10-01 12:00:00 20.9 4 Noroeste 13 Norte 0 -- -- 81
2019-10-01 11:00:00 20.1 3 Norte 11 Noroeste 0 -- -- 91
2019-10-01 10:00:00 -- 2 Oeste 12 Sudoeste 0 -- -- --
2019-10-01 09:00:00 17.9 7 Sudoeste 12 Sur 0 -- -- 97
2019-10-01 08:00:00 18.6 2 Sudoeste 14 Oeste 0 -- -- 97
2019-10-01 07:00:00 18.7 5 Oeste 23 Oeste 0 -- -- 98
2019-10-01 06:00:00 18.5 11 Oeste 42 Oeste 0 -- -- 98
2019-10-01 05:00:00 17.7 12 Noroeste 28 Oeste 0 -- -- 96
2019-10-01 04:00:00 16.8 0 Calma 10 Sudeste 0 -- -- 96
2019-10-01 03:00:00 16.6 7 Sur 9 Sur 0 -- -- 95
2019-10-01 02:00:00 17.9 3 Sudoeste 14 Sudoeste 0 -- -- 90
2019-10-01 01:00:00 18.4 8 Sudoeste 13 Sudoeste 0 -- -- 89
2019-10-01 00:00:00 18.4 7 Sudoeste 11 Sudoeste 0 -- -- 90
2019-09-30 23:00:00 19.3 6 Sudoeste 10 Sudoeste 0 -- -- 88
2019-09-30 22:00:00 19.2 4 Sudoeste 9 Sudoeste 0 -- -- 88
2019-09-30 21:00:00 19.4 4 Noroeste 14 Noroeste 0 -- -- 87
2019-09-30 20:00:00 20.6 12 Noroeste 17 Noroeste 0 -- -- 82
2019-09-30 19:00:00 22.8 9 Norte 26 Nordeste 0 -- -- 72
2019-09-30 18:00:00 24.8 12 Nordeste 22 Nordeste 0 -- -- 65
2019-09-30 17:00:00 27.1 9 Este 17 Nordeste 0 -- -- 58
2019-09-30 16:00:00 26.2 8 Nordeste 18 Este 0 -- -- 63
2019-09-30 15:00:00 26.3 7 Este 14 Nordeste 0 -- -- 62
2019-09-30 14:00:00 25.6 6 Este 12 Nordeste 0 -- -- 61
2019-09-30 13:00:00 24.5 3 Sur 9 Sur 0 -- -- 64
2019-09-30 12:00:00 21.6 5 Sur 10 Sudeste 0 -- -- 77
2019-09-30 11:00:00 18.6 6 Sur 10 Sur 0 -- -- 88
2019-09-30 10:00:00 16.5 5 Sur 14 Sudoeste 0 -- -- 95
2019-09-30 09:00:00 14.4 9 Sur 13 Sudoeste 0 -- -- 98
2019-09-30 08:00:00 14.8 6 Sudoeste 13 Sudoeste 0 -- -- 98
2019-09-30 07:00:00 15.5 6 Sudoeste 10 Sudoeste 0 -- -- 98
2019-09-30 06:00:00 16.3 5 Sudoeste 12 Sudoeste 0 -- -- 98
2019-09-30 05:00:00 16.5 7 Sudoeste 9 Sudoeste 0 -- -- 99
2019-09-30 04:00:00 17.6 2 Sudoeste 4 Sudoeste 0 -- -- 99
2019-09-30 03:00:00 17.9 2 Sur 4 Sur 0 -- -- 99
2019-09-30 02:00:00 18 2 Sudeste 5 Sudeste 0 -- -- 99
2019-09-30 01:00:00 18 0 Calma 8 Norte 0 -- -- 99
2019-09-30 00:00:00 18.1 4 Noroeste 14 Noroeste 0.4 -- -- 98
2019-09-29 23:00:00 18.4 5 Noroeste 11 Norte 0.8 -- -- 97
2019-09-29 22:00:00 18.9 8 Norte 15 Norte 0 -- -- 95
2019-09-29 21:00:00 19.2 7 Noroeste 20 Norte 0 -- -- 93
2019-09-29 20:00:00 20 9 Norte 24 Norte 0 -- -- 77
2019-09-29 19:00:00 21.8 6 Noroeste 10 Norte 0 -- -- 62
2019-09-29 18:00:00 24.3 6 Norte 11 Norte 0 -- -- 50
2019-09-29 17:00:00 25.9 7 Norte 13 Noroeste 0 -- -- 41
2019-09-29 16:00:00 25 4 Noroeste 21 Noroeste 0 -- -- 48
2019-09-29 15:00:00 26.7 3 Norte 10 Sur 0 -- -- 37
2019-09-29 14:00:00 26.5 6 Sur 11 Sur 0 -- -- 38
2019-09-29 13:00:00 24.8 6 Sur 12 Sur 0 -- -- 52
2019-09-29 12:00:00 22.7 6 Noroeste 14 Noroeste 0 -- -- 52
2019-09-29 11:00:00 20.9 5 Sur 17 Sudoeste 0 -- -- 61
2019-09-29 10:00:00 16.6 5 Sur 17 Sudoeste 0 -- -- 74
2019-09-29 09:00:00 13.8 7 Sur 18 Sudoeste 0 -- -- 75
2019-09-29 08:00:00 13.3 13 Sudoeste 20 Sudoeste 0 -- -- 72
2019-09-29 07:00:00 13.4 11 Sudoeste 18 Sudoeste 0 -- -- 74
2019-09-29 06:00:00 12.8 8 Sudoeste 17 Sudoeste 0 -- -- 81
2019-09-29 05:00:00 12.8 8 Sudoeste 13 Sudoeste 0 -- -- 83
2019-09-29 04:00:00 13.4 7 Sudoeste 14 Sudoeste 0 -- -- 88
2019-09-29 03:00:00 13.3 4 Sur 7 Sudoeste 0 -- -- 89
2019-09-29 02:00:00 13.9 4 Sudoeste 15 Sudoeste 0 -- -- 93
2019-09-29 01:00:00 14.1 12 Sur 17 Sudoeste 0 -- -- 98
2019-09-29 00:00:00 13.8 6 Sur 10 Sur 0 -- -- 98
2019-09-28 23:00:00 15.2 4 Sudoeste 8 Sur 0 -- -- 97
2019-09-28 22:00:00 15.7 6 Sudeste 9 Sudeste 0 -- -- 95
2019-09-28 21:00:00 16.1 3 Sur 8 Norte 0 -- -- 93
2019-09-28 20:00:00 17.1 4 Norte 8 Nordeste 0 -- -- 90
2019-09-28 19:00:00 18.6 5 Norte 14 Norte 0 -- -- 84
2019-09-28 18:00:00 19.7 7 Norte 17 Norte 0 -- -- 79
2019-09-28 17:00:00 19.5 10 Norte 19 Norte 0 -- -- 78
2019-09-28 16:00:00 19.5 11 Norte 19 Nordeste 0 -- -- 78
2019-09-28 15:00:00 19.9 8 Norte 15 Norte 0 -- -- 78
2019-09-28 14:00:00 19.9 6 Norte 14 Norte 0 -- -- 78
2019-09-28 13:00:00 19 8 Noroeste 14 Noroeste 0 -- -- 80
2019-09-28 12:00:00 18.3 9 Norte 13 Norte 0 -- -- 84
2019-09-28 11:00:00 18.2 3 Norte 6 Sur 0 -- -- 85
2019-09-28 10:00:00 16.8 4 Sur 10 Sur 0 -- -- 93
2019-09-28 09:00:00 14.9 5 Sudoeste 8 Sudoeste 0 -- -- 98
2019-09-28 08:00:00 14.6 5 Sudoeste 8 Sudoeste 0 -- -- 99
2019-09-28 07:00:00 14.7 5 Sur 10 Sur 0 -- -- 99
2019-09-28 06:00:00 14.5 6 Sudoeste 14 Sudoeste 0 -- -- 100
2019-09-28 05:00:00 14.5 9 Sur 13 Sur 0.4 -- -- 100
2019-09-28 04:00:00 14.9 9 Sur 11 Sur 0 -- -- 99
2019-09-28 03:00:00 15.1 5 Sudoeste 13 Noroeste 0.6 -- -- 98
2019-09-28 02:00:00 15.2 3 Noroeste 7 Noroeste 0 -- -- 92
2019-09-28 01:00:00 15.2 0 Calma 8 Sudoeste 0 -- -- 94
2019-09-28 00:00:00 15.5 4 Sudoeste 16 Sur 0 -- -- 91
2019-09-27 23:00:00 15.7 9 Sur 17 Sudoeste 0 -- -- 89
2019-09-27 22:00:00 15.9 6 Sudoeste 11 Sur 0 -- -- 88
2019-09-27 21:00:00 15.8 6 Sudoeste 12 Sudoeste 0 -- -- 94
2019-09-27 20:00:00 16 7 Sudoeste 15 Sudoeste 0 -- -- 96
2019-09-27 19:00:00 16 5 Oeste 30 Noroeste 0.8 -- -- 96
2019-09-27 18:00:00 17.4 10 Noroeste 31 Noroeste 0 -- -- 90
2019-09-27 17:00:00 17.9 13 Noroeste 31 Noroeste 0 -- -- 88
2019-09-27 16:00:00 19.6 21 Norte 35 Noroeste 0 -- -- 86
2019-09-27 15:00:00 20 17 Norte 29 Norte 0 -- -- 81
2019-09-27 14:00:00 22.8 7 Sudeste 15 Noroeste 0 -- -- 71
2019-09-27 13:00:00 21.2 6 Sudeste 14 Sudeste 0 -- -- 79
2019-09-27 12:00:00 18.5 4 Sudoeste 13 Noroeste 0 -- -- 92
2019-09-27 11:00:00 18.3 5 Noroeste 19 Norte 0 -- -- 90
2019-09-27 10:00:00 18.5 10 Noroeste 26 Noroeste 0 -- -- 83
2019-09-27 09:00:00 16.5 7 Sudoeste 19 Sudoeste 0 -- -- 82
2019-09-27 08:00:00 15.3 11 Sudoeste 17 Sudoeste 0 -- -- 87
2019-09-27 07:00:00 14.9 11 Sudoeste 17 Sudoeste 0 -- -- 91
2019-09-27 06:00:00 15.1 9 Sudoeste 17 Sudoeste 0 -- -- 89
2019-09-27 05:00:00 15.6 10 Sudoeste 17 Sudoeste 0 -- -- 92
2019-09-27 04:00:00 14.7 10 Sudoeste 15 Sudoeste 0 -- -- 97
2019-09-27 03:00:00 14.4 10 Sur 13 Sur 0 -- -- 97
2019-09-27 02:00:00 14.8 7 Sudoeste 11 Sudoeste 0 -- -- 93
2019-09-27 01:00:00 15.4 8 Sudoeste 12 Sudoeste 0 -- -- 92
2019-09-27 00:00:00 16.8 3 Este 5 Este 0 -- -- 87
2019-09-26 23:00:00 16.3 2 Sudoeste 5 Sudoeste 0 -- -- 89
2019-09-26 22:00:00 16 0 Calma 5 Norte 0 -- -- 89
2019-09-26 21:00:00 16.2 4 Norte 12 Norte 0 -- -- 88
2019-09-26 20:00:00 17.4 7 Norte 16 Nordeste 0 -- -- 83
2019-09-26 19:00:00 19.3 6 Nordeste 18 Este 0 -- -- 75
2019-09-26 18:00:00 20.4 8 Nordeste 16 Este 0 -- -- 71
2019-09-26 17:00:00 20.7 8 Nordeste 23 Nordeste 0 -- -- 71
2019-09-26 16:00:00 20.4 13 Norte 22 Norte 0 -- -- 74
2019-09-26 15:00:00 20.5 11 Norte 19 Norte 0 -- -- 75
2019-09-26 14:00:00 20.7 8 Norte 16 Norte 0 -- -- 73
2019-09-26 13:00:00 20.5 5 Nordeste 14 Este 0 -- -- 73
2019-09-26 12:00:00 18.9 3 Este 7 Nordeste 0 -- -- 83
2019-09-26 11:00:00 17.7 3 Sur 5 Sur 0 -- -- 92
2019-09-26 10:00:00 16.6 4 Sudeste 5 Sur 0 -- -- 95
2019-09-26 09:00:00 16.1 3 Sudoeste 6 Sudoeste 0 -- -- 95
2019-09-26 08:00:00 15.8 6 Sudoeste 7 Sur 0 -- -- 96
2019-09-26 07:00:00 16.1 3 Sur 6 Sudoeste 0 -- -- 93
2019-09-26 06:00:00 16.2 4 Sudoeste 7 Sudoeste 0 -- -- 92
2019-09-26 05:00:00 16.1 5 Sudoeste 7 Sudoeste 0 -- -- 95
2019-09-26 04:00:00 16.5 0 Calma -- -- 0 -- -- 92
2019-09-26 03:00:00 16.5 0 Calma 5 Sudoeste 0 -- -- 90
2019-09-26 02:00:00 16.9 3 Sudoeste 8 Sudoeste 0 -- -- 85
2019-09-26 01:00:00 16.8 5 Sudoeste 8 Sudoeste 0 -- -- 84
2019-09-26 00:00:00 17.3 4 Sudoeste 12 Sudoeste 0 -- -- 81
2019-09-25 23:00:00 17.3 5 Sudoeste 10 Sudoeste 0 -- -- 83
2019-09-25 22:00:00 17.5 6 Sudoeste 9 Sudoeste 0 -- -- 84
2019-09-25 21:00:00 17.7 4 Sudoeste 7 Oeste 0 -- -- 83
2019-09-25 20:00:00 18.3 3 Sudoeste 7 Oeste 0 -- -- 81
2019-09-25 19:00:00 18.8 4 Sur 10 Norte 0 -- -- 82
2019-09-25 18:00:00 19.1 4 Noroeste 13 Noroeste 0 -- -- 77
2019-09-25 17:00:00 19.4 3 Noroeste 18 Noroeste 0 -- -- 75
2019-09-25 16:00:00 20.2 13 Noroeste 24 Noroeste 0 -- -- 70
2019-09-25 15:00:00 21 9 Noroeste 22 Noroeste 0 -- -- 65
2019-09-25 14:00:00 20.1 11 Noroeste 23 Oeste 0 -- -- 65
2019-09-25 13:00:00 20.4 10 Noroeste 23 Noroeste 0 -- -- 62
2019-09-25 12:00:00 20.2 5 Sur 15 Sur 0 -- -- 63
2019-09-25 11:00:00 18.3 8 Sur 17 Sudoeste 0 -- -- 74
2019-09-25 10:00:00 15.9 8 Sudoeste 16 Sudoeste 0 -- -- 81
2019-09-25 09:00:00 14.4 8 Sudoeste 18 Sur 0 -- -- 85
2019-09-25 08:00:00 13.8 10 Sudoeste 18 Sudoeste 0 -- -- 88
2019-09-25 07:00:00 13.9 8 Sudoeste 14 Sudoeste 0 -- -- 89
2019-09-25 06:00:00 13.9 5 Sudoeste 12 Sudoeste 0 -- -- 89
2019-09-25 05:00:00 14.4 8 Sudoeste 13 Sudoeste 0 -- -- 90
2019-09-25 04:00:00 14.6 6 Sudoeste 14 Sudoeste 0 -- -- 90
2019-09-25 03:00:00 14.6 6 Sudoeste 12 Sudoeste 0 -- -- 89
2019-09-25 02:00:00 16 4 Sudoeste 14 Noroeste 0 -- -- 82
2019-09-25 01:00:00 16.6 5 Sudoeste 11 Oeste 0 -- -- 81
2019-09-25 00:00:00 16.6 5 Sudoeste 14 Sudoeste 0 -- -- 82
2019-09-24 23:00:00 16.8 6 Sudoeste 15 Sudoeste 0 -- -- 83
2019-09-24 22:00:00 16.8 7 Sudoeste 12 Sudoeste 0 -- -- 86
2019-09-24 21:00:00 16.9 6 Sudoeste 12 Sudoeste 0 -- -- 87
2019-09-24 20:00:00 17 6 Sudoeste 13 Sudoeste 0 -- -- 91
2019-09-24 19:00:00 17.5 8 Sudoeste 19 Sudoeste 0 -- -- 88
2019-09-24 18:00:00 18.2 4 Oeste 13 Oeste 0 -- -- 83
2019-09-24 17:00:00 18.7 3 Sudoeste 8 Sudoeste 0 -- -- 84
2019-09-24 16:00:00 18.8 6 Sur 11 Sur 0 -- -- 86
2019-09-24 15:00:00 18.6 4 Sudoeste 13 Oeste 0 -- -- 86
2019-09-24 14:00:00 17.9 5 Oeste 16 Oeste 0 -- -- 86
2019-09-24 13:00:00 17.5 6 Sudoeste 25 Oeste 0 -- -- 85
2019-09-24 12:00:00 17.1 11 Noroeste 33 Noroeste 0 -- -- 93
2019-09-24 11:00:00 19.7 7 Noroeste 15 Noroeste 0 -- -- 84
2019-09-24 10:00:00 19.2 5 Sudeste 11 Sudeste 0 -- -- 87
2019-09-24 09:00:00 17.8 4 Sudoeste 9 Sudeste 0 -- -- 93
2019-09-24 08:00:00 18 5 Sudoeste 12 Sudoeste 0.4 -- -- 89
2019-09-24 07:00:00 18.3 9 Sudoeste 22 Noroeste 0.6 -- -- 87
2019-09-24 06:00:00 19.9 11 Noroeste 25 Noroeste 0 -- -- 76
2019-09-24 05:00:00 19.6 2 Nordeste 10 Sur 0 -- -- 70
2019-09-24 04:00:00 20 5 Sur 10 Sudoeste 0 -- -- 67
2019-09-24 03:00:00 18.5 8 Sur 12 Sur 0 -- -- 77
2019-09-24 02:00:00 17.8 9 Sur 14 Sudoeste 0 -- -- 82
2019-09-24 01:00:00 16.5 12 Sudoeste 15 Sudoeste 0 -- -- 92
2019-09-24 00:00:00 16.7 4 Sudeste 14 Sudeste 0 -- -- 93
2019-09-23 23:00:00 16.8 9 Sudeste 15 Sudeste 0.2 -- -- 96
2019-09-23 22:00:00 17.4 3 Noroeste 11 Sudoeste 0.2 -- -- 89
2019-09-23 21:00:00 17.3 3 Noroeste 6 Sudeste 0 -- -- 91
2019-09-23 20:00:00 17.6 0 Calma 6 Sudeste 0 -- -- 87
2019-09-23 19:00:00 18.1 0 Calma 13 Noroeste 0 -- -- 83
2019-09-23 18:00:00 18.9 5 Norte 13 Noroeste 0 -- -- 83
2019-09-23 17:00:00 19.3 9 Norte 18 Noroeste 0 -- -- 82
2019-09-23 16:00:00 20.7 7 Norte 13 Noroeste -- -- -- 77
2019-09-23 15:00:00 21.2 6 Noroeste 9 Noroeste 0 -- -- 74
2019-09-23 14:00:00 21 0 Calma 6 Sudeste 0 -- -- 70
2019-09-23 13:00:00 18.8 3 Sudoeste 12 Sur 0 -- -- 79
2019-09-23 12:00:00 18.1 4 Sur 13 Sudeste 0 -- -- 76
2019-09-23 11:00:00 16.5 10 Sudeste 18 Sudeste 0 -- -- 83
2019-09-23 10:00:00 13.8 5 Sur 13 Sur 0 -- -- 94
2019-09-23 09:00:00 13.7 9 Sur 14 Sudoeste 0 -- -- 91
2019-09-23 08:00:00 13.4 8 Sur 17 Oeste 0 -- -- 91
2019-09-23 07:00:00 14.1 8 Sudoeste 14 Sudoeste 0 -- -- 89
2019-09-23 06:00:00 13.3 5 Sudoeste 11 Sudoeste 0 -- -- 93
2019-09-23 05:00:00 13.7 6 Sudoeste 13 Sudoeste 0 -- -- 91
2019-09-23 04:00:00 13.5 6 Sudoeste 10 Sudoeste 0 -- -- 92
2019-09-23 03:00:00 13.7 4 Sudoeste 11 Sudoeste 0 -- -- 90
2019-09-23 02:00:00 14.1 8 Sudoeste 12 Sudoeste 0 -- -- 94
2019-09-23 01:00:00 14.8 5 Sudoeste 10 Sudoeste 0 -- -- 93
2019-09-23 00:00:00 15.8 6 Sudoeste 11 Sudoeste 0 -- -- 91
2019-09-22 23:00:00 15.9 6 Sudoeste 13 Sudoeste 0 -- -- 91
2019-09-22 22:00:00 16.5 7 Sudoeste 9 Sudoeste 0.4 -- -- 81
2019-09-22 21:00:00 17.3 3 Oeste 7 Oeste 0 -- -- 77
2019-09-22 20:00:00 17.8 4 Noroeste 10 Noroeste 0 -- -- 72
2019-09-22 19:00:00 19.1 5 Noroeste 10 Noroeste 0 -- -- 71
2019-09-22 18:00:00 19.5 7 Noroeste 23 Norte 0 -- -- 65
2019-09-22 17:00:00 20.6 10 Noroeste 26 Norte 0 -- -- 62
2019-09-22 16:00:00 20.6 15 Noroeste 26 Noroeste 0 -- -- 65
2019-09-22 15:00:00 21 15 Norte 23 Norte 0 -- -- 65
2019-09-22 14:00:00 21.3 13 Norte 21 Norte 0 -- -- 65
2019-09-22 13:00:00 21.3 8 Nordeste 17 Nordeste 0 -- -- 62
2019-09-22 12:00:00 20.3 4 Este 9 Sudeste 0 -- -- 68
2019-09-22 11:00:00 17.9 5 Sudeste 8 Sudeste 0 -- -- 86
2019-09-22 10:00:00 16.4 3 Sur 8 Sur 0 -- -- 93
2019-09-22 09:00:00 15.8 5 Sur 9 Sudoeste 0 -- -- 94
2019-09-22 08:00:00 15.5 8 Sudoeste 12 Sudoeste 0 -- -- 94
2019-09-22 07:00:00 15.4 4 Sur 9 Sur 0 -- -- 96
2019-09-22 06:00:00 15.5 6 Sudoeste 10 Sur 0 -- -- 96
2019-09-22 05:00:00 15.5 0 Calma 9 Norte 0 -- -- 96
2019-09-22 04:00:00 15.7 3 Norte 15 Norte 0 -- -- 93
2019-09-22 03:00:00 16.1 4 Noroeste 12 Noroeste 0 -- -- 88
2019-09-22 02:00:00 16.1 3 Sudoeste 13 Sudoeste 0 -- -- 90
2019-09-22 01:00:00 16.1 6 Oeste 33 Oeste 0 -- -- 91
2019-09-22 00:00:00 17.3 18 Noroeste 48 Noroeste 0 -- -- 95
2019-09-21 23:00:00 21.6 16 Sudeste 29 Sudeste 0 -- -- 72
2019-09-21 22:00:00 20.3 11 Nordeste 35 Sur 1.2 -- -- 83
2019-09-21 21:00:00 22.7 19 Sur 35 Sur 0 -- -- 65
2019-09-21 20:00:00 22.4 20 Sur 37 Sur 0 -- -- 63
2019-09-21 19:00:00 22.7 19 Sudeste 28 Sudeste 0 -- -- 66
2019-09-21 18:00:00 24.4 17 Sudeste 33 Sur 0 -- -- 61
2019-09-21 17:00:00 25.2 21 Sudeste 37 Sudeste 0 -- -- 57
2019-09-21 16:00:00 22.9 16 Sur 40 Sur 0 -- -- 62
2019-09-21 15:00:00 23 28 Sur 42 Sur 0 -- -- 61
2019-09-21 14:00:00 24.4 26 Sur 41 Sur 0 -- -- 50
2019-09-21 13:00:00 26 12 Sur 26 Sur 0 -- -- 48
2019-09-21 12:00:00 25.8 14 Sur 23 Sur 0 -- -- 56
2019-09-21 11:00:00 23.6 12 Sur 23 Sur 0 -- -- 69
2019-09-21 10:00:00 20.7 12 Sur 18 Sur 0 -- -- 81
2019-09-21 09:00:00 17.1 4 Sur 11 Sudeste 0 -- -- 99
2019-09-21 08:00:00 16.7 4 Sudoeste 10 Norte 0 -- -- 99
2019-09-21 07:00:00 17 5 Norte 9 Sur 0 -- -- 98
2019-09-21 06:00:00 17.5 3 Sur 21 Noroeste 0 -- -- 97
2019-09-21 05:00:00 17.6 12 Noroeste 27 Oeste 0 -- -- 97
2019-09-21 04:00:00 19.3 7 Norte 27 Sudoeste 0 -- -- 83
2019-09-21 03:00:00 18.4 6 Sur 26 Sudeste 0 -- -- 85
2019-09-21 02:00:00 17 8 Sudeste 13 Sudeste 0 -- -- 98
2019-09-21 01:00:00 16.9 5 Sur 18 Noroeste 0 -- -- 99
2019-09-21 00:00:00 17 10 Noroeste 30 Noroeste 0 -- -- 99
2019-09-20 23:00:00 17.6 14 Noroeste 31 Noroeste 0 -- -- 97
2019-09-20 22:00:00 19 16 Noroeste 30 Noroeste 0 -- -- 92
2019-09-20 21:00:00 23.5 18 Sur 52 Sur 0 -- -- 56
2019-09-20 20:00:00 23 30 Sur 46 Sur 0 -- -- 57
2019-09-20 19:00:00 22.6 15 Sur 33 Sur 0 -- -- 65
2019-09-20 18:00:00 25.4 14 Sudeste 27 Sur 0 -- -- 60
2019-09-20 17:00:00 27.6 19 Sur 39 Sur 0 -- -- 50
2019-09-20 16:00:00 27.7 21 Sur 39 Sur 0 -- -- 50
2019-09-20 15:00:00 29.1 22 Sur 31 Sur 0 -- -- 53
2019-09-20 14:00:00 28 17 Sudeste 26 Sudeste 0 -- -- 60
2019-09-20 13:00:00 26.8 13 Sur 25 Sur -- -- -- 66
2019-09-20 12:00:00 25 12 Sur 18 Sur 0 -- -- 69
2019-09-20 11:00:00 21.9 5 Sur 7 Sur 0 -- -- 83
2019-09-20 10:00:00 18.3 3 Sur 7 Sudoeste 0 -- -- 99
2019-09-20 09:00:00 14.9 3 Sur 10 Sudoeste 0 -- -- 100
2019-09-20 08:00:00 14 3 Sudoeste 10 Sur 0 -- -- 100
2019-09-20 07:00:00 14.8 4 Sudoeste 9 Sudoeste 0 -- -- 100
2019-09-20 06:00:00 14.4 0 Calma 3 Este 0 -- -- 100
2019-09-20 05:00:00 14.5 4 Sur 6 Sudoeste 0 -- -- 99
2019-09-20 04:00:00 14.6 0 Calma 7 Sur 0 -- -- 99
2019-09-20 03:00:00 14.9 5 Sur 8 Sudoeste 0 -- -- 97
2019-09-20 02:00:00 15 0 Calma 4 Este 0 -- -- 97
2019-09-20 01:00:00 15.5 0 Calma 7 Sudoeste 0 -- -- 95
2019-09-20 00:00:00 15.6 5 Sudoeste 7 Sudoeste 0 -- -- 94
2019-09-19 23:00:00 15.9 3 Este 6 Este 0 -- -- 91
2019-09-19 22:00:00 16.2 4 Sudeste 8 Nordeste 0 -- -- 90
2019-09-19 21:00:00 16.7 3 Nordeste 8 Nordeste 0 -- -- 89
2019-09-19 20:00:00 17.9 3 Nordeste 17 Nordeste 0 -- -- 84
2019-09-19 19:00:00 19.6 9 Norte 18 Norte 0 -- -- 78
2019-09-19 18:00:00 20.7 9 Norte 18 Norte 0 -- -- 76
2019-09-19 17:00:00 21.6 8 Norte 18 Nordeste 0 -- -- 73
2019-09-19 16:00:00 21.8 10 Norte 20 Norte 0 -- -- 76
2019-09-19 15:00:00 21.8 10 Nordeste 19 Norte 0 -- -- 79
2019-09-19 14:00:00 21.5 13 Norte 20 Norte 0 -- -- 84
2019-09-19 13:00:00 21.4 4 Norte 10 Noroeste 0 -- -- 77
2019-09-19 12:00:00 21.1 4 Sudeste 10 Sur 0 -- -- 79
2019-09-19 11:00:00 19.3 5 Sur 11 Sur 0 -- -- 85
2019-09-19 10:00:00 17.3 8 Sur 15 Sudoeste 0 -- -- 90
2019-09-19 09:00:00 16 7 Sudoeste 13 Sudoeste 0 -- -- 92
2019-09-19 08:00:00 15.6 8 Sudoeste 14 Sudoeste 0 -- -- 95
2019-09-19 07:00:00 15.6 7 Sudoeste 12 Sudoeste 0 -- -- 98
2019-09-19 06:00:00 16 6 Sudoeste 11 Sudoeste 0 -- -- 100
2019-09-19 05:00:00 16.5 4 Sudoeste 9 Sudoeste 0 -- -- 99
2019-09-19 04:00:00 16.6 2 Sudoeste 9 Sudoeste 0 -- -- 99
2019-09-19 03:00:00 16.8 5 Sudoeste 11 Sudoeste 0 -- -- 98
2019-09-19 02:00:00 17.3 8 Sudoeste 11 Sur -- -- -- 97
2019-09-19 01:00:00 17.8 0 Calma 4 Este 0 -- -- 97
2019-09-19 00:00:00 17.9 0 Calma 5 Este 0 -- -- 96
2019-09-18 23:00:00 17.9 2 Norte 4 Noroeste 0 -- -- 96
2019-09-18 22:00:00 18.1 2 Noroeste 6 Noroeste 0 -- -- 95
2019-09-18 21:00:00 18.3 4 Norte 8 Norte 0 -- -- 94
2019-09-18 20:00:00 19.1 4 Norte 13 Norte 0 -- -- 91
2019-09-18 19:00:00 20.2 9 Norte 15 Norte 0 -- -- 87
2019-09-18 18:00:00 20.9 7 Norte 17 Norte 0 -- -- 87
2019-09-18 17:00:00 21.3 8 Norte 18 Nordeste 0 -- -- 89
2019-09-18 16:00:00 21 9 Norte 19 Noroeste 0 -- -- 90
2019-09-18 15:00:00 21.7 10 Norte 23 Noroeste 0 -- -- 91
2019-09-18 14:00:00 21.1 12 Noroeste 23 Norte 0 -- -- 92
2019-09-18 13:00:00 21.8 6 Noroeste 15 Noroeste 0 -- -- 90
2019-09-18 12:00:00 21.1 3 Oeste 12 Sudoeste 0 -- -- 91
2019-09-18 11:00:00 20.8 8 Sudoeste 13 Sur 0 -- -- 97
2019-09-18 10:00:00 19 4 Sudoeste 9 Sudoeste 0 -- -- 100
2019-09-18 09:00:00 18.5 4 Sudoeste 9 Sudoeste 0 -- -- 100
2019-09-18 08:00:00 18.3 4 Sudoeste 6 Sudoeste 0 -- -- 100
2019-09-18 07:00:00 18.5 2 Oeste 8 Sudoeste 0 -- -- 100
2019-09-18 06:00:00 18.9 4 Noroeste 13 Noroeste 0 -- -- 100
2019-09-18 05:00:00 18.5 0 Calma 6 Norte 0 -- -- 99
2019-09-18 04:00:00 18.6 0 Calma 10 Sudoeste 0 -- -- 98
2019-09-18 03:00:00 18.6 5 Sudoeste 9 Sudoeste 0 -- -- 98
2019-09-18 02:00:00 18.7 2 Noroeste 7 Oeste 0.2 -- -- 97
2019-09-18 01:00:00 19 3 Sudoeste 13 Oeste 0 -- -- 98
2019-09-18 00:00:00 19.3 6 Noroeste 14 Oeste 0 -- -- 99
2019-09-17 23:00:00 19.4 5 Oeste 15 Oeste 0 -- -- 99
2019-09-17 22:00:00 19.5 8 Noroeste 15 Noroeste 0 -- -- 99
2019-09-17 21:00:00 19.5 7 Noroeste 17 Noroeste 0 -- -- 98